createdAt,value
2023-02-16T00:01:05.148Z,96712.66
2023-02-16T00:03:33.750Z,96709.38
2023-02-16T00:06:03.300Z,96714.84
2023-02-16T00:08:31.411Z,96715.06
2023-02-16T00:11:17.018Z,96709.56
2023-02-16T00:13:48.746Z,96711.41
2023-02-16T00:16:18.306Z,96707.34
2023-02-16T00:18:46.508Z,96710.00
2023-02-16T00:21:16.043Z,96704.09
2023-02-16T00:23:44.181Z,96700.81
2023-02-16T00:26:15.476Z,96702.66
2023-02-16T00:28:44.648Z,96702.03
2023-02-16T00:31:17.816Z,96713.84
2023-02-16T00:33:46.116Z,96709.56
2023-02-16T00:36:15.657Z,96712.66
2023-02-16T00:38:43.774Z,96708.16
2023-02-16T00:41:37.803Z,96713.88
2023-02-16T00:44:06.629Z,96704.50
2023-02-16T00:46:34.905Z,96704.28
2023-02-16T00:49:04.144Z,96706.72
2023-02-16T00:51:33.621Z,96705.34
2023-02-16T00:54:01.787Z,96707.56
2023-02-16T00:56:30.173Z,96700.81
2023-02-16T00:58:58.311Z,96697.19
2023-02-16T01:01:26.487Z,96697.19
2023-02-16T01:03:54.577Z,96697.81
2023-02-16T01:06:41.758Z,96677.88
2023-02-16T01:09:33.306Z,96689.84
2023-02-16T01:12:02.738Z,96687.84
2023-02-16T01:14:31.309Z,96688.88
2023-02-16T01:17:01.037Z,96682.13
2023-02-16T01:19:29.968Z,96687.25
2023-02-16T01:21:58.071Z,96682.56
2023-02-16T01:24:31.096Z,96684.19
2023-02-16T01:26:59.206Z,96685.41
2023-02-16T01:29:27.323Z,96685.00
2023-02-16T01:31:55.649Z,96678.47
2023-02-16T01:34:25.508Z,96688.03
2023-02-16T01:36:53.932Z,96684.19
2023-02-16T01:39:22.074Z,96683.56
2023-02-16T01:42:12.685Z,96681.75
2023-02-16T01:44:43.919Z,96681.94
2023-02-16T01:47:17.865Z,96682.34
2023-02-16T01:49:45.986Z,96672.56
2023-02-16T01:52:25.484Z,96682.16
2023-02-16T01:54:54.675Z,96680.72
2023-02-16T01:57:28.620Z,96682.16
2023-02-16T02:00:08.552Z,96669.94
2023-02-16T02:02:43.970Z,96677.88
2023-02-16T02:05:37.970Z,96671.56
2023-02-16T02:08:13.564Z,96657.94
2023-02-16T02:10:46.821Z,96667.91
2023-02-16T02:13:20.730Z,96669.53
2023-02-16T02:15:48.900Z,96666.28
2023-02-16T02:18:17.453Z,96669.94
2023-02-16T02:21:15.614Z,96666.47
2023-02-16T02:23:52.409Z,96666.28
2023-02-16T02:26:55.118Z,96667.28
2023-02-16T02:29:57.278Z,96661.00
2023-02-16T02:32:31.769Z,96657.53
2023-02-16T02:35:03.251Z,96660.56
2023-02-16T02:37:40.895Z,96665.47
2023-02-16T02:40:12.996Z,96657.53
2023-02-16T02:42:45.469Z,96667.06
2023-02-16T02:45:15.394Z,96669.53
2023-02-16T02:47:45.308Z,96669.31
2023-02-16T02:50:32.173Z,96666.06
2023-02-16T02:53:02.179Z,96669.31
2023-02-16T02:55:48.501Z,96670.34
2023-02-16T02:58:35.562Z,96681.09
2023-02-16T03:01:03.961Z,96671.56
2023-02-16T03:03:35.109Z,96666.44
2023-02-16T03:06:05.753Z,96669.72
2023-02-16T03:08:35.027Z,96665.44
2023-02-16T03:11:23.419Z,96658.53
2023-02-16T03:13:53.834Z,96667.66
2023-02-16T03:16:24.777Z,96673.56
2023-02-16T03:19:10.094Z,96667.06
2023-02-16T03:21:55.826Z,96661.38
2023-02-16T03:24:43.613Z,96670.31
2023-02-16T03:27:29.136Z,96665.81
2023-02-16T03:29:58.677Z,96660.31
2023-02-16T03:32:26.952Z,96668.19
2023-02-16T03:34:55.020Z,96663.09
2023-02-16T03:37:23.276Z,96659.44
2023-02-16T03:40:08.929Z,96660.44
2023-02-16T03:42:37.073Z,96665.91
2023-02-16T03:45:07.353Z,96673.41
2023-02-16T03:47:35.512Z,96677.66
2023-02-16T03:50:03.586Z,96685.53
2023-02-16T03:52:31.972Z,96684.03
2023-02-16T03:55:00.580Z,96683.53
2023-02-16T03:57:28.636Z,96682.88
2023-02-16T03:59:59.165Z,96682.59
2023-02-16T04:02:28.985Z,96681.06
2023-02-16T04:04:57.190Z,96684.84
2023-02-16T04:07:25.611Z,96688.41
2023-02-16T04:09:53.717Z,96689.53
2023-02-16T04:12:38.825Z,96687.28
2023-02-16T04:15:08.256Z,96697.09
2023-02-16T04:17:37.745Z,96691.72
2023-02-16T04:20:07.226Z,96690.69
2023-02-16T04:22:35.325Z,96696.94
2023-02-16T04:25:03.394Z,96693.88
2023-02-16T04:27:31.497Z,96707.63
2023-02-16T04:29:59.548Z,96703.28
2023-02-16T04:32:27.689Z,96699.31
2023-02-16T04:34:57.447Z,96702.25
2023-02-16T04:37:25.523Z,96696.09
2023-02-16T04:39:53.638Z,96704.72
2023-02-16T04:42:21.716Z,96699.38
2023-02-16T04:44:49.844Z,96698.69
2023-02-16T04:47:17.918Z,96696.41
2023-02-16T04:49:48.063Z,96693.88
2023-02-16T04:52:19.380Z,96700.88
2023-02-16T04:54:47.507Z,96700.41
2023-02-16T04:57:16.028Z,96706.66
2023-02-16T04:59:44.095Z,96709.66
2023-02-16T05:02:12.475Z,96705.31
2023-02-16T05:04:42.112Z,96705.06
2023-02-16T05:07:10.273Z,96707.38
2023-02-16T05:09:39.757Z,96705.16
2023-02-16T05:12:25.446Z,96695.16
2023-02-16T05:14:53.610Z,96709.03
2023-02-16T05:17:22.820Z,96704.69
2023-02-16T05:19:51.633Z,96701.75
2023-02-16T05:22:19.793Z,96715.25
2023-02-16T05:24:49.406Z,96700.47
2023-02-16T05:27:18.146Z,96705.94
2023-02-16T05:29:46.530Z,96696.84
2023-02-16T05:32:14.727Z,96703.31
2023-02-16T05:34:44.434Z,96705.53
2023-02-16T05:37:12.626Z,96705.94
2023-02-16T05:39:40.734Z,96718.44
2023-02-16T05:42:10.610Z,96707.28
2023-02-16T05:44:38.813Z,96714.50
2023-02-16T05:47:06.932Z,96714.25
2023-02-16T05:49:35.069Z,96712.13
2023-02-16T05:52:03.403Z,96712.31
2023-02-16T05:54:31.649Z,96703.00
2023-02-16T05:57:00.116Z,96706.94
2023-02-16T05:59:29.739Z,96696.28
2023-02-16T06:01:57.892Z,96698.72
2023-02-16T06:04:25.996Z,96698.72
2023-02-16T06:06:54.061Z,96692.81
2023-02-16T06:09:22.482Z,96687.09
2023-02-16T06:11:50.566Z,96679.84
2023-02-16T06:14:19.960Z,96692.34
2023-02-16T06:16:50.120Z,96694.47
2023-02-16T06:19:18.869Z,96695.28
2023-02-16T06:21:46.972Z,96695.47
2023-02-16T06:24:15.568Z,96695.03
2023-02-16T06:26:43.736Z,96702.25
2023-02-16T06:29:12.024Z,96693.09
2023-02-16T06:31:40.234Z,96695.09
2023-02-16T06:34:09.812Z,96689.03
2023-02-16T06:36:39.044Z,96689.72
2023-02-16T06:39:08.714Z,96685.84
2023-02-16T06:41:40.211Z,96674.22
2023-02-16T06:44:09.295Z,96671.31
2023-02-16T06:46:37.495Z,96665.25
2023-02-16T06:49:06.029Z,96667.88
2023-02-16T06:51:35.494Z,96672.13
2023-02-16T06:54:03.609Z,96678.03
2023-02-16T06:56:31.724Z,96682.28
2023-02-16T06:58:59.810Z,96679.28
2023-02-16T07:01:27.942Z,96681.41
2023-02-16T07:03:56.879Z,96681.03
2023-02-16T07:06:25.340Z,96668.34
2023-02-16T07:08:54.903Z,96669.44
2023-02-16T07:11:22.961Z,96674.81
2023-02-16T07:13:51.093Z,96664.03
2023-02-16T07:16:19.551Z,96677.75
2023-02-16T07:18:47.764Z,96673.84
2023-02-16T07:21:15.926Z,96674.56
2023-02-16T07:23:44.035Z,96676.66
2023-02-16T07:26:13.587Z,96677.13
2023-02-16T07:28:41.739Z,96671.69
2023-02-16T07:31:10.881Z,96670.47
2023-02-16T07:33:39.178Z,96663.88
2023-02-16T07:36:08.166Z,96665.31
2023-02-16T07:38:36.284Z,96663.75
2023-02-16T07:41:07.865Z,96661.66
2023-02-16T07:43:39.460Z,96658.50
2023-02-16T07:46:07.935Z,96660.38
2023-02-16T07:48:36.158Z,96653.16
2023-02-16T07:51:05.090Z,96658.41
2023-02-16T07:53:33.507Z,96657.72
2023-02-16T07:56:01.634Z,96660.69
2023-02-16T07:58:29.736Z,96667.09
2023-02-16T08:01:07.218Z,96657.25
2023-02-16T08:03:35.386Z,96659.75
2023-02-16T08:06:03.929Z,96664.66
2023-02-16T08:08:32.159Z,96671.00
2023-02-16T08:11:01.791Z,96662.28
2023-02-16T08:13:29.961Z,96670.69
2023-02-16T08:15:59.516Z,96677.22
2023-02-16T08:18:27.622Z,96674.38
2023-02-16T08:21:04.116Z,96672.56
2023-02-16T08:23:32.857Z,96664.44
2023-02-16T08:26:01.220Z,96669.13
2023-02-16T08:28:29.707Z,96664.25
2023-02-16T08:30:59.862Z,96655.66
2023-02-16T08:33:28.458Z,96656.72
2023-02-16T08:35:56.556Z,96659.38
2023-02-16T08:38:25.566Z,96662.81
2023-02-16T08:40:54.101Z,96656.28
2023-02-16T08:43:22.620Z,96657.88
2023-02-16T08:45:51.821Z,96657.00
2023-02-16T08:48:21.396Z,96662.47
2023-02-16T08:50:53.827Z,96656.50
2023-02-16T08:53:23.157Z,96657.78
2023-02-16T08:55:55.738Z,96658.09
2023-02-16T08:58:24.507Z,96653.06
2023-02-16T09:00:52.688Z,96648.53
2023-02-16T09:03:22.241Z,96655.88
2023-02-16T09:05:51.287Z,96651.16
2023-02-16T09:08:19.479Z,96654.63
2023-02-16T09:10:47.611Z,96645.47
2023-02-16T09:13:16.241Z,96656.47
2023-02-16T09:15:44.668Z,96663.97
2023-02-16T09:18:14.122Z,96662.91
2023-02-16T09:20:46.737Z,96654.28
2023-02-16T09:23:15.201Z,96662.19
2023-02-16T09:25:43.367Z,96674.03
2023-02-16T09:28:11.684Z,96668.66
2023-02-16T09:30:39.893Z,96673.09
2023-02-16T09:33:08.322Z,96678.56
2023-02-16T09:35:36.498Z,96680.91
2023-02-16T09:38:07.759Z,96683.63
2023-02-16T09:40:36.172Z,96673.66
2023-02-16T09:43:08.377Z,96666.88
2023-02-16T09:45:40.881Z,96677.78
2023-02-16T09:48:12.152Z,96680.81
2023-02-16T09:50:53.387Z,96687.25
2023-02-16T09:53:27.501Z,96683.72
2023-02-16T09:55:59.694Z,96682.47
2023-02-16T09:58:41.897Z,96684.84
2023-02-16T10:01:14.576Z,96677.22
2023-02-16T10:03:51.486Z,96678.25
2023-02-16T10:06:42.293Z,96672.47
2023-02-16T10:09:13.630Z,96675.16
2023-02-16T10:11:46.635Z,96680.00
2023-02-16T10:14:19.765Z,96686.97
2023-02-16T10:16:51.960Z,96684.03
2023-02-16T10:19:21.906Z,96682.88
2023-02-16T10:21:52.587Z,96680.16
2023-02-16T10:24:22.106Z,96685.28
2023-02-16T10:26:52.137Z,96684.88
2023-02-16T10:29:22.204Z,96690.09
2023-02-16T10:31:53.028Z,96686.72
2023-02-16T10:34:23.189Z,96681.50
2023-02-16T10:37:20.806Z,96677.72
2023-02-16T10:39:53.034Z,96673.50
2023-02-16T10:42:25.840Z,96688.50
2023-02-16T10:44:57.695Z,96682.03
2023-02-16T10:47:31.199Z,96678.50
2023-02-16T10:49:59.366Z,96685.16
2023-02-16T10:52:27.573Z,96678.47
2023-02-16T10:54:57.067Z,96676.38
2023-02-16T10:57:27.601Z,96669.63
2023-02-16T10:59:56.352Z,96667.38
2023-02-16T11:02:26.237Z,96666.31
2023-02-16T11:04:54.457Z,96663.13
2023-02-16T11:07:23.401Z,96660.69
2023-02-16T11:09:53.164Z,96663.75
2023-02-16T11:12:30.054Z,96664.50
2023-02-16T11:15:02.472Z,96656.56
2023-02-16T11:17:31.436Z,96660.09
2023-02-16T11:20:01.930Z,96659.41
2023-02-16T11:22:32.645Z,96644.56
2023-02-16T11:25:22.054Z,96641.69
2023-02-16T11:27:57.098Z,96644.50
2023-02-16T11:30:32.498Z,96642.03
2023-02-16T11:33:02.129Z,96638.56
2023-02-16T11:35:31.834Z,96651.50
2023-02-16T11:38:00.356Z,96640.75
2023-02-16T11:40:29.851Z,96648.63
2023-02-16T11:42:59.933Z,96654.69
2023-02-16T11:45:31.314Z,96654.25
2023-02-16T11:48:01.733Z,96652.13
2023-02-16T11:50:30.446Z,96662.22
2023-02-16T11:52:59.343Z,96649.84
2023-02-16T11:55:32.655Z,96651.78
2023-02-16T11:58:16.569Z,96657.22
2023-02-16T12:00:49.029Z,96651.03
2023-02-16T12:03:45.612Z,96650.22
2023-02-16T12:06:23.480Z,96653.00
2023-02-16T12:09:01.464Z,96651.41
2023-02-16T12:11:34.161Z,96653.50
2023-02-16T12:14:13.532Z,96653.22
2023-02-16T12:16:44.661Z,96646.00
2023-02-16T12:19:20.292Z,96646.13
2023-02-16T12:21:49.397Z,96640.31
2023-02-16T12:24:28.495Z,96646.56
2023-02-16T12:26:57.981Z,96640.28
2023-02-16T12:29:37.960Z,96640.72
2023-02-16T12:32:12.123Z,96641.06
2023-02-16T12:34:48.813Z,96631.91
2023-02-16T12:37:21.318Z,96637.97
2023-02-16T12:39:52.686Z,96641.72
2023-02-16T12:42:36.970Z,96632.91
2023-02-16T12:45:10.046Z,96631.41
2023-02-16T12:47:41.003Z,96633.63
2023-02-16T12:50:12.645Z,96637.75
2023-02-16T12:52:41.547Z,96642.91
2023-02-16T12:55:18.018Z,96639.44
2023-02-16T12:57:50.813Z,96632.38
2023-02-16T13:00:24.057Z,96626.47
2023-02-16T13:02:54.175Z,96619.28
2023-02-16T13:05:23.227Z,96615.78
2023-02-16T13:07:52.117Z,96614.31
2023-02-16T13:10:22.135Z,96616.16
2023-02-16T13:12:51.985Z,96611.28
2023-02-16T13:15:23.152Z,96606.75
2023-02-16T13:17:52.491Z,96607.34
2023-02-16T13:20:21.380Z,96601.41
2023-02-16T13:23:11.860Z,96611.72
2023-02-16T13:25:54.229Z,96609.19
2023-02-16T13:28:40.696Z,96612.22
2023-02-16T13:31:22.450Z,96604.81
2023-02-16T13:33:57.316Z,96613.41
2023-02-16T13:36:33.981Z,96612.69
2023-02-16T13:39:13.825Z,96605.63
2023-02-16T13:41:46.733Z,96607.81
2023-02-16T13:44:15.882Z,96607.81
2023-02-16T13:46:47.046Z,96609.91
2023-02-16T13:49:29.965Z,96611.19
2023-02-16T13:51:58.564Z,96608.66
2023-02-16T13:54:29.343Z,96606.22
2023-02-16T13:56:57.379Z,96603.06
2023-02-16T14:00:02.088Z,96611.53
2023-02-16T14:02:54.489Z,96606.56
2023-02-16T14:05:39.503Z,96608.28
2023-02-16T14:08:13.308Z,96604.56
2023-02-16T14:10:58.952Z,96608.47
2023-02-16T14:13:29.497Z,96607.31
2023-02-16T14:15:58.884Z,96616.78
2023-02-16T14:18:32.746Z,96608.00
2023-02-16T14:21:04.332Z,96596.78
2023-02-16T14:23:34.699Z,96610.13
2023-02-16T14:26:03.477Z,96602.16
2023-02-16T14:29:16.071Z,96605.06
2023-02-16T14:31:48.296Z,96604.03
2023-02-16T14:34:21.471Z,96612.69
2023-02-16T14:37:12.091Z,96623.38
2023-02-16T14:40:04.153Z,96614.88
2023-02-16T14:42:30.297Z,96619.19
2023-02-16T14:45:19.700Z,96611.53
2023-02-16T14:47:52.741Z,96611.66
2023-02-16T14:50:35.157Z,96618.25
2023-02-16T14:53:24.540Z,96620.53
2023-02-16T14:56:25.729Z,96620.63
2023-02-16T14:58:56.284Z,96622.66
2023-02-16T15:01:24.876Z,96622.19
2023-02-16T15:03:54.649Z,96611.28
2023-02-16T15:06:31.935Z,96613.00
2023-02-16T15:09:00.847Z,96615.97
2023-02-16T15:11:31.488Z,96620.91
2023-02-16T15:14:08.451Z,96613.03
2023-02-16T15:16:38.869Z,96611.47
2023-02-16T15:19:10.644Z,96612.38
2023-02-16T15:21:40.304Z,96621.47
2023-02-16T15:24:23.061Z,96615.78
2023-02-16T15:26:55.932Z,96611.38
2023-02-16T15:29:26.421Z,96609.75
2023-02-16T15:31:54.669Z,96613.66
2023-02-16T15:34:29.903Z,96609.63
2023-02-16T15:36:59.522Z,96612.72
2023-02-16T15:39:42.675Z,96608.25
2023-02-16T15:42:19.923Z,96614.69
2023-02-16T15:44:48.147Z,96615.16
2023-02-16T15:47:17.552Z,96619.28
2023-02-16T15:49:45.652Z,96620.50
2023-02-16T15:52:17.675Z,96628.94
2023-02-16T15:54:46.683Z,96630.41
2023-02-16T15:57:20.066Z,96617.97
2023-02-16T15:59:49.066Z,96619.31
2023-02-16T16:02:18.559Z,96613.59
2023-02-16T16:04:48.142Z,96617.88
2023-02-16T16:07:18.853Z,96605.84
2023-02-16T16:09:46.943Z,96608.13
2023-02-16T16:12:15.739Z,96608.72
2023-02-16T16:14:46.099Z,96609.41
2023-02-16T16:17:15.629Z,96606.94
2023-02-16T16:19:43.738Z,96603.09
2023-02-16T16:22:40.130Z,96616.22
2023-02-16T16:25:29.123Z,96611.13
2023-02-16T16:27:57.245Z,96604.41
2023-02-16T16:30:29.629Z,96596.84
2023-02-16T16:33:02.365Z,96597.25
2023-02-16T16:35:38.480Z,96593.59
2023-02-16T16:38:10.414Z,96595.00
2023-02-16T16:40:38.680Z,96588.88
2023-02-16T16:43:15.218Z,96592.97
2023-02-16T16:45:43.783Z,96594.47
2023-02-16T16:48:17.732Z,96602.78
2023-02-16T16:50:46.023Z,96600.78
2023-02-16T16:53:55.064Z,96610.22
2023-02-16T16:56:23.467Z,96607.78
2023-02-16T16:58:51.815Z,96597.00
2023-02-16T17:01:19.977Z,96596.25
2023-02-16T17:03:55.566Z,96601.38
2023-02-16T17:06:23.942Z,96600.78
2023-02-16T17:08:52.089Z,96603.69
2023-02-16T17:11:25.851Z,96598.13
2023-02-16T17:13:54.869Z,96596.53
2023-02-16T17:16:25.170Z,96595.72
2023-02-16T17:18:53.229Z,96593.63
2023-02-16T17:21:21.297Z,96593.88
2023-02-16T17:23:53.140Z,96580.16
2023-02-16T17:26:23.247Z,96582.81
2023-02-16T17:28:52.237Z,96587.09
2023-02-16T17:31:20.408Z,96588.13
2023-02-16T17:33:48.551Z,96582.38
2023-02-16T17:36:16.731Z,96577.47
2023-02-16T17:38:44.934Z,96583.41
2023-02-16T17:41:17.726Z,96583.69
2023-02-16T17:43:47.419Z,96590.63
2023-02-16T17:46:16.028Z,96597.09
2023-02-16T17:48:44.112Z,96606.06
2023-02-16T17:51:14.961Z,96602.75
2023-02-16T17:53:43.071Z,96596.19
2023-02-16T17:56:11.658Z,96607.41
2023-02-16T17:58:39.791Z,96609.84
2023-02-16T18:01:11.743Z,96609.84
2023-02-16T18:03:39.812Z,96608.81
2023-02-16T18:06:08.023Z,96611.09
2023-02-16T18:08:36.065Z,96611.91
2023-02-16T18:11:04.283Z,96610.47
2023-02-16T18:13:32.480Z,96621.69
2023-02-16T18:16:01.006Z,96624.50
2023-02-16T18:18:30.463Z,96621.44
2023-02-16T18:20:58.562Z,96616.78
2023-02-16T18:23:26.605Z,96621.69
2023-02-16T18:25:54.848Z,96620.47
2023-02-16T18:28:26.799Z,96617.00
2023-02-16T18:30:54.957Z,96618.63
2023-02-16T18:33:23.246Z,96610.66
2023-02-16T18:35:55.973Z,96611.09
2023-02-16T18:38:24.568Z,96613.94
2023-02-16T18:40:53.533Z,96609.84
2023-02-16T18:43:21.621Z,96607.78
2023-02-16T18:45:49.788Z,96606.31
2023-02-16T18:48:17.922Z,96604.78
2023-02-16T18:50:45.948Z,96601.72
2023-02-16T18:53:15.706Z,96603.06
2023-02-16T18:55:43.779Z,96596.72
2023-02-16T18:58:12.304Z,96596.25
2023-02-16T19:00:40.386Z,96597.25
2023-02-16T19:03:08.655Z,96596.22
2023-02-16T19:05:37.079Z,96591.25
2023-02-16T19:08:05.416Z,96596.13
2023-02-16T19:10:34.835Z,96598.38
2023-02-16T19:13:03.221Z,96585.53
2023-02-16T19:15:33.259Z,96592.88
2023-02-16T19:18:01.719Z,96580.56
2023-02-16T19:20:29.866Z,96586.88
2023-02-16T19:22:57.965Z,96590.34
2023-02-16T19:25:26.870Z,96589.47
2023-02-16T19:27:57.226Z,96587.81
2023-02-16T19:30:25.442Z,96587.47
2023-02-16T19:32:53.903Z,96579.34
2023-02-16T19:35:22.120Z,96575.88
2023-02-16T19:37:51.490Z,96575.44
2023-02-16T19:40:19.897Z,96577.28
2023-02-16T19:42:47.927Z,96573.41
2023-02-16T19:45:17.883Z,96573.22
2023-02-16T19:47:46.276Z,96575.50
2023-02-16T19:50:14.368Z,96583.06
2023-02-16T19:52:42.489Z,96588.81
2023-02-16T19:55:11.534Z,96583.97
2023-02-16T19:57:40.061Z,96581.97
2023-02-16T20:00:11.603Z,96572.81
2023-02-16T20:02:43.967Z,96572.22
2023-02-16T20:05:12.215Z,96574.72
2023-02-16T20:07:40.515Z,96581.06
2023-02-16T20:10:09.051Z,96571.25
2023-02-16T20:12:37.189Z,96578.63
2023-02-16T20:15:06.736Z,96567.78
2023-02-16T20:17:34.973Z,96567.56
2023-02-16T20:20:05.345Z,96565.88
2023-02-16T20:22:33.571Z,96564.88
2023-02-16T20:25:02.453Z,96563.59
2023-02-16T20:27:30.926Z,96552.75
2023-02-16T20:29:59.624Z,96553.19
2023-02-16T20:32:28.313Z,96551.59
2023-02-16T20:34:56.605Z,96549.72
2023-02-16T20:37:26.348Z,96558.28
2023-02-16T20:39:55.905Z,96554.38
2023-02-16T20:42:24.054Z,96555.19
2023-02-16T20:44:52.220Z,96549.19
2023-02-16T20:47:20.450Z,96553.72
2023-02-16T20:49:48.568Z,96553.72
2023-02-16T20:52:16.748Z,96548.63
2023-02-16T20:54:46.578Z,96553.94
2023-02-16T20:57:26.002Z,96548.03
2023-02-16T20:59:54.878Z,96536.59
2023-02-16T21:02:23.138Z,96536.38
2023-02-16T21:04:51.458Z,96530.28
2023-02-16T21:07:19.958Z,96525.09
2023-02-16T21:09:49.554Z,96514.94
2023-02-16T21:12:17.757Z,96510.88
2023-02-16T21:14:46.046Z,96499.22
2023-02-16T21:17:14.223Z,96503.63
2023-02-16T21:19:42.425Z,96509.53
2023-02-16T21:22:10.864Z,96506.06
2023-02-16T21:24:40.760Z,96499.72
2023-02-16T21:27:10.397Z,96497.59
2023-02-16T21:29:38.905Z,96491.66
2023-02-16T21:32:07.203Z,96493.13
2023-02-16T21:34:35.527Z,96489.22
2023-02-16T21:37:04.491Z,96493.25
2023-02-16T21:39:49.735Z,96486.69
2023-02-16T21:42:19.356Z,96489.94
2023-02-16T21:44:50.035Z,96483.59
2023-02-16T21:47:36.183Z,96478.50
2023-02-16T21:50:04.388Z,96469.88
2023-02-16T21:52:32.552Z,96470.91
2023-02-16T21:55:18.438Z,96484.47
2023-02-16T21:57:47.950Z,96478.59
2023-02-16T22:00:17.074Z,96479.41
2023-02-16T22:02:45.448Z,96465.78
2023-02-16T22:05:13.733Z,96473.53
2023-02-16T22:07:41.980Z,96462.22
2023-02-16T22:10:10.656Z,96466.94
2023-02-16T22:12:38.994Z,96466.94
2023-02-16T22:15:09.293Z,96461.34
2023-02-16T22:17:37.511Z,96455.78
2023-02-16T22:20:06.831Z,96456.81
2023-02-16T22:22:35.063Z,96451.28
2023-02-16T22:25:03.199Z,96460.75
2023-02-16T22:27:31.393Z,96462.59
2023-02-16T22:29:59.879Z,96469.06
2023-02-16T22:32:29.591Z,96465.31
2023-02-16T22:34:57.696Z,96462.19
2023-02-16T22:37:25.922Z,96457.34
2023-02-16T22:39:55.210Z,96457.09
2023-02-16T22:42:23.665Z,96460.66
2023-02-16T22:44:51.780Z,96459.41
2023-02-16T22:47:20.065Z,96450.25
2023-02-16T22:49:49.609Z,96451.75
2023-02-16T22:52:17.843Z,96454.84
2023-02-16T22:54:46.190Z,96458.53
2023-02-16T22:57:14.622Z,96452.41
2023-02-16T22:59:42.813Z,96454.25
2023-02-16T23:02:10.905Z,96455.28
2023-02-16T23:04:40.042Z,96439.56
2023-02-16T23:07:10.709Z,96443.50
2023-02-16T23:09:38.821Z,96442.13
2023-02-16T23:12:07.611Z,96427.34
2023-02-16T23:14:37.855Z,96431.31
2023-02-16T23:17:05.983Z,96428.06
2023-02-16T23:19:34.409Z,96432.34
2023-02-16T23:22:02.550Z,96424.81
2023-02-16T23:24:32.320Z,96429.69
2023-02-16T23:27:00.476Z,96433.97
2023-02-16T23:29:28.644Z,96427.25
2023-02-16T23:31:56.841Z,96430.03
2023-02-16T23:34:25.017Z,96428.41
2023-02-16T23:36:53.185Z,96437.78
2023-02-16T23:39:21.317Z,96424.94
2023-02-16T23:41:50.818Z,96414.09
2023-02-16T23:44:19.077Z,96432.91
2023-02-16T23:46:47.152Z,96435.72
2023-02-16T23:49:15.230Z,96426.22
2023-02-16T23:51:43.323Z,96417.66
2023-02-16T23:54:11.989Z,96412.94
2023-02-16T23:56:40.715Z,96412.13
2023-02-16T23:59:10.334Z,96407.16
